Wright City, Missouri
Current Conditions -  °F | °C
As of 12:15 PM on Friday 28 Nov 2014 (Local Time) from KFYG Reporting Station
Clear Clear  
Wind Chill: 50°   Ceiling: Unl
Heat Index: 50°   Visibility: 10mi
Dew Point: 32°   Wind: 14mph
Humidity: 50%   Direction: 180°S
Pressure: 30.01"   Gusts: 18mph
Location:  38.83°N, 91.02°W
Report Text: KFYG 281815Z AUTO 18012G16KT 10SM CLR 10/00 A3001 RMK AO2
Loading
Personal Weather Stations






























Interactive Weather Map New forecast layout! Learn more

10-Day Weather Forecast

Advertisements
Track Severe Weather on mobile